Etusivu
METAR-TAF:

METAR-TAF

Lentoasemat :

Mackinac Island Airport

Mackinac Island, Michigan, Yhdysvallat

Leveyspiiri: 45-51-54N, Pituuspiiri: 084-38-14W, korkeus merenpinnasta: 226 m

Tämänhetkinen sää

Tämä raportti tehtiin 24 minuuttia sitten, kello 06.15 UTC
Tuuli 3 kn etelästä/lounaasta
Lämpötila 4°C
Kosteus 100%
Ilmanpaine 1006 hPa
Näkyvyys: 4.0 km
Pilvistä 200 ft:n korkeudessa
utua

METAR: KMCD 190615Z AUTO 21003KT 2 1/2SM BR OVC002 04/04 A2971 RMK AO2 T00370037

Aika: 01:39 (06:39 UTC)


TAF: puuttuu

Säähavainnot ja -ennusteet yli 4000 lentoasemalta (METAR- ja TAF-raportit).

Käytössä olevat sääasemat on merkitty karttaan keltaisilla ja punaisilla pisteillä.

Aseta hiiri pisteen päälle nähdäksesi sääaseman nimen.

Klikkaa sitten nähdäksesi säähavainnot ja -ennusteet.

Kartan vaihtaminen: klikkaa mustalla rastilla varustettuja vihreitä pisteitä, niin voit zoomata sisään; viivalla varustettua vihreää pistettä, niin voit zoomata ulos tai vihreitä nuolia, niin pääset viereisille kartoille.


METAR-TAF: